createdAt,value
2019-03-27T00:00:41.316Z,7.83
2019-03-27T00:03:11.960Z,7.80
2019-03-27T00:05:41.386Z,7.74
2019-03-27T00:08:10.743Z,7.71
2019-03-27T00:10:40.278Z,7.65
2019-03-27T00:13:09.944Z,7.65
2019-03-27T00:15:41.425Z,7.64
2019-03-27T00:18:11.110Z,7.52
2019-03-27T00:20:40.475Z,7.52
2019-03-27T00:23:11.314Z,7.46
2019-03-27T00:25:40.723Z,7.41
2019-03-27T00:28:10.142Z,7.39
2019-03-27T00:30:39.771Z,7.38
2019-03-27T00:33:10.686Z,7.35
2019-03-27T00:35:40.161Z,7.29
2019-03-27T00:38:09.531Z,7.26
2019-03-27T00:40:39.210Z,7.23
2019-03-27T00:43:08.811Z,7.18
2019-03-27T00:45:40.200Z,7.11
2019-03-27T00:48:09.557Z,7.11
2019-03-27T00:50:39.150Z,7.08
2019-03-27T00:53:08.914Z,7.05
2019-03-27T00:55:38.341Z,7.03
2019-03-27T00:58:07.707Z,6.98
2019-03-27T01:00:50.180Z,6.93
2019-03-27T01:03:19.561Z,6.90
2019-03-27T01:05:52.590Z,6.87
2019-03-27T01:08:22.811Z,6.85
2019-03-27T01:10:53.558Z,6.82
2019-03-27T01:13:23.248Z,6.77
2019-03-27T01:15:52.837Z,6.75
2019-03-27T01:18:24.140Z,6.72
2019-03-27T01:20:53.590Z,6.69
2019-03-27T01:23:23.207Z,6.66
2019-03-27T01:25:52.587Z,6.63
2019-03-27T01:28:22.258Z,6.58
2019-03-27T01:30:51.900Z,6.57
2019-03-27T01:33:21.572Z,6.58
2019-03-27T01:35:51.280Z,6.58
2019-03-27T01:38:20.890Z,6.60
2019-03-27T01:40:51.006Z,6.59
2019-03-27T01:43:20.688Z,6.58
2019-03-27T01:45:53.185Z,6.59
2019-03-27T01:48:21.656Z,6.58
2019-03-27T01:50:52.108Z,6.58
2019-03-27T01:53:22.096Z,6.56
2019-03-27T01:55:51.816Z,6.52
2019-03-27T01:58:21.444Z,6.49
2019-03-27T02:00:50.821Z,6.44
2019-03-27T02:03:20.646Z,6.39
2019-03-27T02:05:50.362Z,6.39
2019-03-27T02:08:19.731Z,6.37
2019-03-27T02:10:49.406Z,6.37
2019-03-27T02:13:18.941Z,6.37
2019-03-27T02:15:48.502Z,6.35
2019-03-27T02:18:18.854Z,6.37
2019-03-27T02:20:48.389Z,6.38
2019-03-27T02:23:19.003Z,6.36
2019-03-27T02:25:48.522Z,6.34
2019-03-27T02:28:18.847Z,6.32
2019-03-27T02:30:48.210Z,6.31
2019-03-27T02:33:18.815Z,6.31
2019-03-27T02:35:48.418Z,6.30
2019-03-27T02:38:18.476Z,6.31
2019-03-27T02:40:47.862Z,6.31
2019-03-27T02:43:17.460Z,6.31
2019-03-27T02:45:46.845Z,6.37
2019-03-27T02:48:16.349Z,6.40
2019-03-27T02:50:45.784Z,6.42
2019-03-27T02:53:15.163Z,6.43
2019-03-27T02:55:44.646Z,6.43
2019-03-27T02:58:14.047Z,6.43
2019-03-27T03:00:43.511Z,6.45
2019-03-27T03:03:12.891Z,6.48
2019-03-27T03:05:42.776Z,6.54
2019-03-27T03:08:12.144Z,6.58
2019-03-27T03:10:45.208Z,6.61
2019-03-27T03:13:12.819Z,6.63
2019-03-27T03:15:42.502Z,6.66
2019-03-27T03:18:12.152Z,6.67
2019-03-27T03:20:41.696Z,6.67
2019-03-27T03:23:11.337Z,6.67
2019-03-27T03:25:40.740Z,6.66
2019-03-27T03:28:11.784Z,6.65
2019-03-27T03:30:41.468Z,6.63
2019-03-27T03:33:11.227Z,6.66
2019-03-27T03:35:40.656Z,6.66
2019-03-27T03:38:10.026Z,6.65
2019-03-27T03:40:39.741Z,6.64
2019-03-27T03:43:09.454Z,6.61
2019-03-27T03:45:39.260Z,6.61
2019-03-27T03:48:09.402Z,6.59
2019-03-27T03:50:42.579Z,6.59
2019-03-27T03:53:14.581Z,6.58
2019-03-27T03:55:44.420Z,6.57
2019-03-27T03:58:15.144Z,6.57
2019-03-27T04:00:46.135Z,6.56
2019-03-27T04:03:15.880Z,6.55
2019-03-27T04:05:45.403Z,6.65
2019-03-27T04:08:14.762Z,6.69
2019-03-27T04:10:44.334Z,6.67
2019-03-27T04:13:13.795Z,6.64
2019-03-27T04:15:43.612Z,6.63
2019-03-27T04:18:12.985Z,6.65
2019-03-27T04:20:42.676Z,6.69
2019-03-27T04:23:12.058Z,6.71
2019-03-27T04:26:07.217Z,6.76
2019-03-27T04:28:13.329Z,6.79
2019-03-27T04:30:42.992Z,6.79
2019-03-27T04:33:12.668Z,6.79
2019-03-27T04:35:42.060Z,6.79
2019-03-27T04:38:11.683Z,6.81
2019-03-27T04:40:41.294Z,6.80
2019-03-27T04:43:10.848Z,6.82
2019-03-27T04:45:40.222Z,6.82
2019-03-27T04:48:09.722Z,6.83
2019-03-27T04:50:39.094Z,6.85
2019-03-27T04:53:08.756Z,6.87
2019-03-27T04:55:38.236Z,6.90
2019-03-27T04:58:07.891Z,6.89
2019-03-27T05:00:37.282Z,6.91
2019-03-27T05:03:06.773Z,6.91
2019-03-27T05:05:36.177Z,6.93
2019-03-27T05:08:05.823Z,6.92
2019-03-27T05:10:35.211Z,6.93
2019-03-27T05:13:04.783Z,6.95
2019-03-27T05:15:34.162Z,6.93
2019-03-27T05:18:03.789Z,6.93
2019-03-27T05:20:33.467Z,6.94
2019-03-27T05:23:03.011Z,6.94
2019-03-27T05:25:32.384Z,6.92
2019-03-27T05:28:01.884Z,6.90
2019-03-27T05:30:31.283Z,6.90
2019-03-27T05:33:00.932Z,6.91
2019-03-27T05:35:30.623Z,6.95
2019-03-27T05:37:59.998Z,6.92
2019-03-27T05:40:29.673Z,6.90
2019-03-27T05:43:00.796Z,6.92
2019-03-27T05:45:30.295Z,6.89
2019-03-27T05:48:00.204Z,6.87
2019-03-27T05:50:29.952Z,6.90
2019-03-27T05:52:59.555Z,6.91
2019-03-27T05:55:29.844Z,6.91
2019-03-27T05:58:00.173Z,6.89
2019-03-27T06:00:33.187Z,6.85
2019-03-27T06:03:02.000Z,6.87
2019-03-27T06:05:31.414Z,6.90
2019-03-27T06:08:00.928Z,6.91
2019-03-27T06:10:30.859Z,6.95
2019-03-27T06:13:01.478Z,6.97
2019-03-27T06:15:31.169Z,7.00
2019-03-27T06:18:12.481Z,7.01
2019-03-27T06:20:31.907Z,7.05
2019-03-27T06:23:01.352Z,7.05
2019-03-27T06:25:31.006Z,7.06
2019-03-27T06:28:00.373Z,7.09
2019-03-27T06:30:30.039Z,7.13
2019-03-27T06:32:59.402Z,7.12
2019-03-27T06:35:29.235Z,7.13
2019-03-27T06:37:58.861Z,7.16
2019-03-27T06:40:30.113Z,7.23
2019-03-27T06:42:59.497Z,7.24
2019-03-27T06:45:29.028Z,7.26
2019-03-27T06:47:58.395Z,7.26
2019-03-27T06:50:28.057Z,7.33
2019-03-27T06:52:57.806Z,7.33
2019-03-27T06:55:27.337Z,7.44
2019-03-27T06:57:58.013Z,7.53
2019-03-27T07:00:35.230Z,7.63
2019-03-27T07:03:06.676Z,7.70
2019-03-27T07:05:37.934Z,7.68
2019-03-27T07:08:07.238Z,7.68
2019-03-27T07:10:37.543Z,7.74
2019-03-27T07:13:07.164Z,7.83
2019-03-27T07:15:39.608Z,7.83
2019-03-27T07:18:09.868Z,8.12
2019-03-27T07:20:41.028Z,8.12
2019-03-27T07:23:10.310Z,8.33
2019-03-27T07:25:39.938Z,8.51
2019-03-27T07:28:09.305Z,8.64
2019-03-27T07:30:38.684Z,8.74
2019-03-27T07:33:08.151Z,8.73
2019-03-27T07:35:37.519Z,8.73
2019-03-27T07:38:07.197Z,8.80
2019-03-27T07:40:43.797Z,8.80
2019-03-27T07:43:13.234Z,8.90
2019-03-27T07:45:43.642Z,8.90
2019-03-27T07:48:13.191Z,8.86
2019-03-27T07:50:42.617Z,8.86
2019-03-27T07:53:12.171Z,8.90
2019-03-27T07:55:41.532Z,8.95
2019-03-27T07:58:11.229Z,9.06
2019-03-27T08:00:41.378Z,9.13
2019-03-27T08:03:11.076Z,9.20
2019-03-27T08:05:40.444Z,9.27
2019-03-27T08:08:11.192Z,9.44
2019-03-27T08:10:40.544Z,9.54
2019-03-27T08:13:10.188Z,9.60
2019-03-27T08:15:40.789Z,9.72
2019-03-27T08:18:11.646Z,9.84
2019-03-27T08:20:41.254Z,9.82
2019-03-27T08:23:12.013Z,9.78
2019-03-27T08:25:41.404Z,9.91
2019-03-27T08:28:10.770Z,10.11
2019-03-27T08:30:40.361Z,10.19
2019-03-27T08:33:09.735Z,10.21
2019-03-27T08:35:39.371Z,10.15
2019-03-27T08:38:08.774Z,10.17
2019-03-27T08:40:38.574Z,10.24
2019-03-27T08:43:20.726Z,10.30
2019-03-27T08:45:39.359Z,10.42
2019-03-27T08:48:10.256Z,10.43
2019-03-27T08:50:39.696Z,10.36
2019-03-27T08:53:09.061Z,10.24
2019-03-27T08:55:38.755Z,10.20
2019-03-27T08:58:08.458Z,10.24
2019-03-27T09:00:51.501Z,10.24
2019-03-27T09:03:20.873Z,10.19
2019-03-27T09:05:50.594Z,10.26
2019-03-27T09:08:20.312Z,10.33
2019-03-27T09:10:49.686Z,10.36
2019-03-27T09:13:20.816Z,10.54
2019-03-27T09:15:50.429Z,10.84
2019-03-27T09:18:21.042Z,11.07
2019-03-27T09:20:50.393Z,11.10
2019-03-27T09:23:19.774Z,11.08
2019-03-27T09:25:49.583Z,11.13
2019-03-27T09:28:19.680Z,11.15
2019-03-27T09:30:49.351Z,11.18
2019-03-27T09:33:19.928Z,11.31
2019-03-27T09:35:49.398Z,11.48
2019-03-27T09:38:19.984Z,11.57
2019-03-27T09:40:49.373Z,11.63
2019-03-27T09:43:21.239Z,11.45
2019-03-27T09:45:52.069Z,11.45
2019-03-27T09:48:24.011Z,11.38
2019-03-27T09:50:53.481Z,11.35
2019-03-27T09:53:22.853Z,11.41
2019-03-27T09:55:52.413Z,11.58
2019-03-27T09:58:21.799Z,11.72
2019-03-27T10:00:55.426Z,11.98
2019-03-27T10:03:24.780Z,11.98
2019-03-27T10:05:54.455Z,12.05
2019-03-27T10:08:23.836Z,12.04
2019-03-27T10:10:53.529Z,11.94
2019-03-27T10:13:23.208Z,11.87
2019-03-27T10:15:52.656Z,11.78
2019-03-27T10:18:22.033Z,11.77
2019-03-27T10:20:55.096Z,11.72
2019-03-27T10:23:25.462Z,11.72
2019-03-27T10:25:54.811Z,11.72
2019-03-27T10:28:24.999Z,11.70
2019-03-27T10:31:00.512Z,11.72
2019-03-27T10:33:29.876Z,11.76
2019-03-27T10:35:59.532Z,11.85
2019-03-27T10:38:28.998Z,11.89
2019-03-27T10:40:58.488Z,11.95
2019-03-27T10:43:27.874Z,11.97
2019-03-27T10:45:57.523Z,11.97
2019-03-27T10:48:28.283Z,12.03
2019-03-27T10:50:57.637Z,12.12
2019-03-27T10:53:28.079Z,12.22
2019-03-27T10:55:57.523Z,12.42
2019-03-27T10:58:29.945Z,12.48
2019-03-27T11:00:59.621Z,12.65
2019-03-27T11:03:29.151Z,12.77
2019-03-27T11:05:58.958Z,13.08
2019-03-27T11:08:28.633Z,13.84
2019-03-27T11:10:59.597Z,13.84
2019-03-27T11:13:29.573Z,14.22
2019-03-27T11:15:58.885Z,14.39
2019-03-27T11:18:28.576Z,14.36
2019-03-27T11:20:57.923Z,14.30
2019-03-27T11:23:27.596Z,14.53
2019-03-27T11:25:58.495Z,14.61
2019-03-27T11:28:28.261Z,14.46
2019-03-27T11:30:57.764Z,14.46
2019-03-27T11:33:29.001Z,14.39
2019-03-27T11:35:58.953Z,14.25
2019-03-27T11:38:28.625Z,14.10
2019-03-27T11:40:58.965Z,14.04
2019-03-27T11:43:28.359Z,13.97
2019-03-27T11:45:57.850Z,13.99
2019-03-27T11:48:27.225Z,13.84
2019-03-27T11:50:56.784Z,13.71
2019-03-27T11:53:26.159Z,13.59
2019-03-27T11:55:55.671Z,13.68
2019-03-27T11:58:25.372Z,14.00
2019-03-27T12:00:55.277Z,14.42
2019-03-27T12:03:24.964Z,14.60
2019-03-27T12:05:54.974Z,14.59
2019-03-27T12:08:24.647Z,14.47
2019-03-27T12:10:54.004Z,14.52
2019-03-27T12:13:24.015Z,14.81
2019-03-27T12:15:54.994Z,14.86
2019-03-27T12:18:24.372Z,14.69
2019-03-27T12:20:59.493Z,14.54
2019-03-27T12:23:25.222Z,14.45
2019-03-27T12:25:55.572Z,14.47
2019-03-27T12:28:27.296Z,14.44
2019-03-27T12:30:56.913Z,14.39
2019-03-27T12:33:26.292Z,14.27
2019-03-27T12:35:55.904Z,14.03
2019-03-27T12:38:25.309Z,13.90
2019-03-27T12:40:57.261Z,13.83
2019-03-27T12:43:26.924Z,13.82
2019-03-27T12:45:57.359Z,13.82
2019-03-27T12:48:27.036Z,13.82
2019-03-27T12:50:56.938Z,13.75
2019-03-27T12:53:26.313Z,13.67
2019-03-27T12:55:56.999Z,13.68
2019-03-27T12:58:27.445Z,13.70
2019-03-27T13:00:57.059Z,13.85
2019-03-27T13:03:26.437Z,13.91
2019-03-27T13:05:57.460Z,13.99
2019-03-27T13:08:27.102Z,13.93
2019-03-27T13:10:56.775Z,13.91
2019-03-27T13:13:26.248Z,13.99
2019-03-27T13:15:55.915Z,14.06
2019-03-27T13:18:25.275Z,14.07
2019-03-27T13:20:54.868Z,13.92
2019-03-27T13:23:24.748Z,13.93
2019-03-27T13:25:54.797Z,14.03
2019-03-27T13:28:24.243Z,14.06
2019-03-27T13:30:53.868Z,14.04
2019-03-27T13:33:23.286Z,14.13
2019-03-27T13:35:52.996Z,14.19
2019-03-27T13:38:23.530Z,14.15
2019-03-27T13:40:53.048Z,14.10
2019-03-27T13:43:22.580Z,13.88
2019-03-27T13:45:52.266Z,13.76
2019-03-27T13:48:21.913Z,13.72
2019-03-27T13:50:51.304Z,13.77
2019-03-27T13:53:20.967Z,13.82
2019-03-27T13:55:51.174Z,13.91
2019-03-27T13:58:20.528Z,14.04
2019-03-27T14:00:50.133Z,14.07
2019-03-27T14:03:20.454Z,13.92
2019-03-27T14:05:51.627Z,13.76
2019-03-27T14:08:21.355Z,13.68
2019-03-27T14:10:53.093Z,13.56
2019-03-27T14:13:22.452Z,13.41
2019-03-27T14:15:52.145Z,13.37
2019-03-27T14:18:21.494Z,13.31
2019-03-27T14:20:51.025Z,13.22
2019-03-27T14:23:20.469Z,13.04
2019-03-27T14:25:50.384Z,13.04
2019-03-27T14:28:20.434Z,13.01
2019-03-27T14:30:54.698Z,12.87
2019-03-27T14:33:24.369Z,12.84
2019-03-27T14:35:54.911Z,12.84
2019-03-27T14:38:24.422Z,12.81
2019-03-27T14:40:55.656Z,12.78
2019-03-27T14:43:27.039Z,12.80
2019-03-27T14:45:56.365Z,12.84
2019-03-27T14:48:25.723Z,12.82
2019-03-27T14:50:55.477Z,12.79
2019-03-27T14:53:25.401Z,12.79
2019-03-27T14:55:55.123Z,12.79
2019-03-27T14:58:24.481Z,12.86
2019-03-27T15:00:55.262Z,12.90
2019-03-27T15:03:24.878Z,12.91
2019-03-27T15:05:54.777Z,12.92
2019-03-27T15:08:24.437Z,12.87
2019-03-27T15:10:54.103Z,12.85
2019-03-27T15:13:23.826Z,12.81
2019-03-27T15:15:53.333Z,12.67
2019-03-27T15:18:22.695Z,12.56
2019-03-27T15:20:53.495Z,12.47
2019-03-27T15:23:24.116Z,12.51
2019-03-27T15:25:53.497Z,12.55
2019-03-27T15:28:22.937Z,12.60
2019-03-27T15:30:52.388Z,12.60
2019-03-27T15:33:21.745Z,12.62
2019-03-27T15:35:51.267Z,12.58
2019-03-27T15:38:20.669Z,12.40
2019-03-27T15:40:50.403Z,12.40
2019-03-27T15:43:20.836Z,12.33
2019-03-27T15:45:50.451Z,12.33
2019-03-27T15:48:20.714Z,12.38
2019-03-27T15:50:58.255Z,12.35
2019-03-27T15:53:21.537Z,12.37
2019-03-27T15:55:51.260Z,12.42
2019-03-27T15:58:20.653Z,12.49
2019-03-27T16:00:50.328Z,12.54
2019-03-27T16:03:20.893Z,12.55
2019-03-27T16:05:50.314Z,12.61
2019-03-27T16:08:20.635Z,12.67
2019-03-27T16:10:50.283Z,12.71
2019-03-27T16:13:22.125Z,12.71
2019-03-27T16:15:53.086Z,12.72
2019-03-27T16:18:22.433Z,12.72
2019-03-27T16:20:53.294Z,12.74
2019-03-27T16:23:22.659Z,12.71
2019-03-27T16:25:52.374Z,12.69
2019-03-27T16:28:22.020Z,12.66
2019-03-27T16:30:51.675Z,12.63
2019-03-27T16:33:23.365Z,12.61
2019-03-27T16:36:00.862Z,12.59
2019-03-27T16:38:32.105Z,12.57
2019-03-27T16:41:01.483Z,12.55
2019-03-27T16:43:30.842Z,12.54
2019-03-27T16:46:00.723Z,12.57
2019-03-27T16:48:30.731Z,12.56
2019-03-27T16:51:00.429Z,12.56
2019-03-27T16:53:29.865Z,12.55
2019-03-27T16:55:59.399Z,12.53
2019-03-27T16:58:29.599Z,12.49
2019-03-27T17:01:00.578Z,12.44
2019-03-27T17:03:30.275Z,12.42
2019-03-27T17:05:59.643Z,12.43
2019-03-27T17:08:30.035Z,12.42
2019-03-27T17:10:59.390Z,12.40
2019-03-27T17:13:28.764Z,12.39
2019-03-27T17:15:58.424Z,12.40
2019-03-27T17:18:28.362Z,12.40
2019-03-27T17:20:58.711Z,12.37
2019-03-27T17:23:28.474Z,12.31
2019-03-27T17:25:57.954Z,12.29
2019-03-27T17:28:27.662Z,12.28
2019-03-27T17:30:57.995Z,12.27
2019-03-27T17:33:29.138Z,12.27
2019-03-27T17:35:58.501Z,12.28
2019-03-27T17:38:28.171Z,12.32
2019-03-27T17:40:57.530Z,12.31
2019-03-27T17:43:26.910Z,12.27
2019-03-27T17:45:56.594Z,12.27
2019-03-27T17:48:26.244Z,12.23
2019-03-27T17:50:55.600Z,12.23
2019-03-27T17:53:31.716Z,12.23
2019-03-27T17:55:56.501Z,12.23
2019-03-27T17:58:26.179Z,12.23
2019-03-27T18:00:56.862Z,12.27
2019-03-27T18:03:26.527Z,12.28
2019-03-27T18:05:55.890Z,12.29
2019-03-27T18:08:25.571Z,12.33
2019-03-27T18:10:54.933Z,12.36
2019-03-27T18:13:24.880Z,12.37
2019-03-27T18:15:54.526Z,12.38
2019-03-27T18:18:23.927Z,12.36
2019-03-27T18:20:53.631Z,12.32
2019-03-27T18:23:23.031Z,12.28
2019-03-27T18:25:52.693Z,12.26
2019-03-27T18:28:22.617Z,12.26
2019-03-27T18:30:52.237Z,12.28
2019-03-27T18:33:21.907Z,12.25
2019-03-27T18:35:51.551Z,12.22
2019-03-27T18:38:21.180Z,12.19
2019-03-27T18:40:52.229Z,12.17
2019-03-27T18:43:21.882Z,12.14
2019-03-27T18:45:52.687Z,12.12
2019-03-27T18:48:22.316Z,12.11
2019-03-27T18:50:51.754Z,12.07
2019-03-27T18:53:21.222Z,12.02
2019-03-27T18:55:50.633Z,11.99
2019-03-27T18:58:21.008Z,11.97
2019-03-27T19:00:52.867Z,11.96
2019-03-27T19:03:22.279Z,11.95
2019-03-27T19:05:52.644Z,11.93
2019-03-27T19:08:22.090Z,11.91
2019-03-27T19:10:51.674Z,11.90
2019-03-27T19:13:21.076Z,11.91
2019-03-27T19:15:51.409Z,11.91
2019-03-27T19:18:21.472Z,11.90
2019-03-27T19:20:50.888Z,11.87
2019-03-27T19:23:22.731Z,11.85
2019-03-27T19:25:52.124Z,11.89
2019-03-27T19:28:21.773Z,11.90
2019-03-27T19:30:51.160Z,11.89
2019-03-27T19:33:22.100Z,11.90
2019-03-27T19:35:51.768Z,11.87
2019-03-27T19:38:21.137Z,11.85
2019-03-27T19:40:50.907Z,11.86
2019-03-27T19:43:21.083Z,11.84
2019-03-27T19:45:50.443Z,11.81
2019-03-27T19:48:21.143Z,11.79
2019-03-27T19:50:50.776Z,11.78
2019-03-27T19:53:21.145Z,11.78
2019-03-27T19:55:50.823Z,11.79
2019-03-27T19:58:21.165Z,11.78
2019-03-27T20:00:50.845Z,11.75
2019-03-27T20:03:21.216Z,11.75
2019-03-27T20:05:50.885Z,11.78
2019-03-27T20:08:21.289Z,11.79
2019-03-27T20:10:50.886Z,11.80
2019-03-27T20:13:21.212Z,11.81
2019-03-27T20:15:50.941Z,11.82
2019-03-27T20:18:21.872Z,11.81
2019-03-27T20:20:51.228Z,11.79
2019-03-27T20:23:21.788Z,11.80
2019-03-27T20:25:52.247Z,11.79
2019-03-27T20:28:22.375Z,11.79
2019-03-27T20:30:53.042Z,11.76
2019-03-27T20:33:22.723Z,11.70
2019-03-27T20:35:52.113Z,11.66
2019-03-27T20:38:21.785Z,11.64
2019-03-27T20:40:51.160Z,11.65
2019-03-27T20:43:21.297Z,11.64
2019-03-27T20:45:52.189Z,11.64
2019-03-27T20:48:21.869Z,11.63
2019-03-27T20:50:51.255Z,11.62
2019-03-27T20:53:21.651Z,11.59
2019-03-27T20:55:51.059Z,11.52
2019-03-27T20:58:22.639Z,11.48
2019-03-27T21:00:52.058Z,11.42
2019-03-27T21:03:22.429Z,11.40
2019-03-27T21:05:52.058Z,11.39
2019-03-27T21:08:21.474Z,11.38
2019-03-27T21:10:51.029Z,11.40
2019-03-27T21:13:21.495Z,11.40
2019-03-27T21:15:51.176Z,11.39
2019-03-27T21:18:21.718Z,11.37
2019-03-27T21:20:51.135Z,11.33
2019-03-27T21:23:21.422Z,11.28
2019-03-27T21:25:51.312Z,11.25
2019-03-27T21:28:21.445Z,11.21
2019-03-27T21:30:51.130Z,11.17
2019-03-27T21:33:21.601Z,11.14
2019-03-27T21:35:51.740Z,11.12
2019-03-27T21:38:21.465Z,11.10
2019-03-27T21:40:52.034Z,11.01
2019-03-27T21:43:21.471Z,11.01
2019-03-27T21:45:51.201Z,11.02
2019-03-27T21:48:21.484Z,11.02
2019-03-27T21:50:51.224Z,10.97
2019-03-27T21:53:21.516Z,10.94
2019-03-27T21:55:51.167Z,10.81
2019-03-27T21:58:21.384Z,10.81
2019-03-27T22:00:52.095Z,10.83
2019-03-27T22:03:21.819Z,10.81
2019-03-27T22:05:51.212Z,10.79
2019-03-27T22:08:21.587Z,10.77
2019-03-27T22:10:51.164Z,10.73
2019-03-27T22:13:21.409Z,10.73
2019-03-27T22:15:51.212Z,10.78
2019-03-27T22:18:21.529Z,10.80
2019-03-27T22:20:51.154Z,10.76
2019-03-27T22:23:21.558Z,10.76
2019-03-27T22:25:51.458Z,10.77
2019-03-27T22:28:21.791Z,10.77
2019-03-27T22:30:51.322Z,10.78
2019-03-27T22:33:21.519Z,10.78
2019-03-27T22:35:51.127Z,10.80
2019-03-27T22:38:21.542Z,10.80
2019-03-27T22:40:51.151Z,10.81
2019-03-27T22:43:21.534Z,10.81
2019-03-27T22:45:51.280Z,10.80
2019-03-27T22:48:21.552Z,10.80
2019-03-27T22:50:51.243Z,10.79
2019-03-27T22:53:22.531Z,10.79
2019-03-27T22:55:52.231Z,10.83
2019-03-27T22:58:23.184Z,10.83
2019-03-27T23:00:57.950Z,10.83
2019-03-27T23:03:27.541Z,10.82
2019-03-27T23:05:57.852Z,10.77
2019-03-27T23:08:27.472Z,10.77
2019-03-27T23:10:57.160Z,10.79
2019-03-27T23:13:26.825Z,10.78
2019-03-27T23:15:56.643Z,10.76
2019-03-27T23:18:26.318Z,10.76
2019-03-27T23:20:55.706Z,10.81
2019-03-27T23:23:25.378Z,10.78
2019-03-27T23:26:03.044Z,10.78
2019-03-27T23:28:30.051Z,10.81
2019-03-27T23:30:59.435Z,10.79
2019-03-27T23:33:29.106Z,10.77
2019-03-27T23:36:01.665Z,10.70
2019-03-27T23:38:31.306Z,10.70
2019-03-27T23:41:00.700Z,10.72
2019-03-27T23:43:30.377Z,10.69
2019-03-27T23:46:00.012Z,10.67
2019-03-27T23:48:30.652Z,10.65
2019-03-27T23:51:00.660Z,10.55
2019-03-27T23:53:31.501Z,10.55
2019-03-27T23:56:01.013Z,10.57
2019-03-27T23:58:30.679Z,10.51
